• Join FlightAware (Why Join?)
  • Login
  • US Flag 
12:16AM EDT


 

Airport Tracker/Info


-or-


 

Live Flight TrackerFlight Track Log ✈ N366FE ✈ 23-Apr-2013 ✈ KMEM - KLCK

Flight Track Log - Related Links

Times and Time Zones

All times are in EDT time to prevent confusion due to time zone crossing. See the N366FE flight status page for this flight to view local times or setup timezone preferences in your user account.

Time Position Orientation Groundspeed Altitude Reporting Facility
EDT Latitude Longitude Course Direction KTS MPH feet Rate Location/Type
04:30PM 35.0333 -89.9667 180° South 155 178 800  Level KMEM
04:31PM 34.9833 -89.9667 180° South 178 205 2,700 2,100 Climbing KMEM
04:32PM 34.9500 -89.9000 121° Southeast 294 338 5,000 2,520 Climbing KMEM
04:32PM 35.0000 -89.8167 54° Northeast 329 379 7,600 2,760 Climbing KMEM
04:33PM 35.0247 -89.7483 66° East 325 374 9,400 2,340 Climbing Memphis Center
04:34PM 35.0594 -89.6442 68° East 344 396 11,500 2,160 Climbing Memphis Center
04:35PM 35.1025 -89.5219 67° East 368 423 13,800 2,400 Climbing Memphis Center
04:36PM 35.1475 -89.3972 66° East 390 449 16,400 2,280 Climbing Memphis Center
04:37PM 35.1903 -89.2669 68° East 405 466 18,400 1,920 Climbing Memphis Center
04:38PM 35.2411 -89.1292 66° East 419 482 20,300 1,740 Climbing Memphis Center
04:39PM 35.3022 -88.9958 61° Northeast 430 495 21,900 1,440 Climbing Memphis Center
04:45PM 35.7540 -88.1410 61° Northeast 503 579 30,700 1,380 Climbing FlightAware
04:46PM 35.8170 -88.0520 49° Northeast 510 587 31,400 1,200 Climbing FlightAware
04:47PM 35.8780 -87.9660 49° Northeast 508 585 32,300 1,320 Climbing FlightAware
04:47PM 35.9470 -87.8690 49° Northeast 506 582 33,300 1,080 Climbing FlightAware
04:48PM 36.0120 -87.7770 49° Northeast 509 586 33,900 900 Climbing FlightAware
04:49PM 36.0830 -87.6830 47° Northeast 502 578 34,600 720 Climbing FlightAware
04:49PM 36.1580 -87.6210 34° Northeast 494 568 35,000 300 Climbing FlightAware
04:50PM 36.2330 -87.5590 34° Northeast 495 570 35,000  Level FlightAware
04:51PM 36.3230 -87.4870 33° Northeast 500 575 35,000  Level FlightAware
04:52PM 36.4010 -87.4230 33° Northeast 496 571 35,000  Level FlightAware
04:52PM 36.4750 -87.3630 33° Northeast 496 571 35,000  Level FlightAware
04:53PM 36.5560 -87.2820 39° Northeast 501 577 35,000  Level FlightAware
04:54PM 36.6260 -87.2090 40° Northeast 501 577 35,000  Level FlightAware
04:54PM 36.7080 -87.1220 40° Northeast 501 577 35,000  Level FlightAware
04:55PM 36.7780 -87.0470 41° Northeast 499 574 35,000  Level FlightAware
04:56PM 36.8550 -86.9640 41° Northeast 499 574 35,000  Level FlightAware
04:56PM 36.9200 -86.8918 42° Northeast 500 575 35,000  Level FlightAware ADS-B
04:57PM 36.9762 -86.8311 41° Northeast 500 575 35,000  Level FlightAware ADS-B
04:58PM 37.0750 -86.7250 41° Northeast 501 577 35,000  Level FlightAware
04:58PM 37.0995 -86.6980 41° Northeast 501 577 35,000  Level FlightAware ADS-B
04:59PM 37.2140 -86.5720 41° Northeast 502 578 35,000  Level FlightAware
05:00PM 37.2910 -86.4860 42° Northeast 503 579 35,000  Level FlightAware
05:01PM 37.3600 -86.4100 41° Northeast 503 579 35,000 60 Level FlightAware
05:01PM 37.4390 -86.3220 41° Northeast 503 579 35,100  Climbing FlightAware
05:02PM 37.5080 -86.2470 41° Northeast 503 579 35,000 -120 Descending FlightAware
05:03PM 37.5800 -86.1680 41° Northeast 503 579 35,000 60 Level FlightAware
05:03PM 37.6570 -86.0800 42° Northeast 502 578 35,100 60 Climbing FlightAware
05:04PM 37.7200 -86.0100 41° Northeast 501 577 35,100 -60 Level FlightAware
05:05PM 37.8260 -85.8920 41° Northeast 500 575 35,000 -60 Descending FlightAware
05:06PM 37.8860 -85.8260 41° Northeast 500 575 35,000  Level FlightAware
05:06PM 37.9710 -85.7290 42° Northeast 495 570 35,000 -300 Level FlightAware
05:07PM 38.0470 -85.6420 42° Northeast 501 577 34,600 -720 Descending FlightAware
05:08PM 38.1180 -85.5620 42° Northeast 500 575 34,000 -1,020 Descending FlightAware
05:09PM 38.1900 -85.4960 36° Northeast 501 577 33,300 -1,020 Descending FlightAware
05:09PM 38.2740 -85.4160 37° Northeast 502 578 32,600 -1,020 Descending FlightAware
05:10PM 38.3490 -85.3460 36° Northeast 502 578 31,900 -1,020 Descending FlightAware
05:11PM 38.4340 -85.2640 37° Northeast 506 582 31,200 -660 Descending FlightAware
05:11PM 38.5090 -85.1930 37° Northeast 486 559 31,000 -180 Descending FlightAware
05:12PM 38.5890 -85.1190 36° Northeast 485 558 31,000  Level FlightAware
05:13PM 38.6600 -85.0490 38° Northeast 488 562 31,000 -540 Level FlightAware
05:13PM 38.7320 -84.9790 37° Northeast 485 558 30,300 -1,740 Descending FlightAware
05:14PM 38.8080 -84.9040 38° Northeast 476 548 28,600 -2,340 Descending FlightAware
05:15PM 38.8600 -84.8540 37° Northeast 467 537 27,400 -960 Descending FlightAware
05:15PM 38.9310 -84.7870 36° Northeast 467 537 27,400 -2,100 Level FlightAware
05:16PM 39.0210 -84.6940 39° Northeast 440 506 24,100 -2,400 Descending FlightAware
05:17PM 39.0620 -84.6290 51° Northeast 441 507 24,000 -120 Descending FlightAware
05:18PM 39.1170 -84.5420 51° Northeast 441 507 24,000  Level FlightAware
05:18PM 39.1610 -84.4720 51° Northeast 441 507 24,000  Level FlightAware
05:19PM 39.2040 -84.4030 51° Northeast 441 507 24,000  Level FlightAware
05:20PM 39.2480 -84.3330 51° Northeast 441 507 24,000  Level FlightAware
05:20PM 39.2920 -84.2640 51° Northeast 441 507 24,000 -2,880 Level FlightAware
05:23PM 39.4220 -83.8670 67° East 401 461 15,300 -3,120 Descending FlightAware
05:24PM 39.4600 -83.7670 64° Northeast 400 460 14,300 -1,320 Descending FlightAware
05:24PM 39.4890 -83.6890 64° Northeast 395 455 13,600 -1,200 Descending FlightAware
05:25PM 39.5240 -83.5990 63° Northeast 390 449 12,700 -1,200 Descending FlightAware
05:26PM 39.5610 -83.5030 63° Northeast 368 423 11,800 -1,200 Descending FlightAware
05:26PM 39.5900 -83.4280 63° Northeast 349 402 11,000 -660 Descending FlightAware
05:27PM 39.6140 -83.3680 63° Northeast 349 402 11,000  Level FlightAware
05:28PM 39.6450 -83.2890 63° Northeast 349 402 11,000 -1,440 Level FlightAware
05:28PM 39.6294 -83.2183 63° Northeast 318 366 9,000 -1,260 Descending Indianapolis Center
05:29PM 39.6436 -83.1089 80° East 310 357 9,000  Level Indianapolis Center
05:30PM 39.6592 -83.0039 79° East 301 346 9,000 -420 Level Indianapolis Center
05:31PM 39.6906 -82.9100 66° East 256 295 8,200 -1,140 Descending Indianapolis Center
05:32PM 39.7367 -82.8475 46° Northeast 256 295 6,700 -1,740 Descending Indianapolis Center
05:33PM 39.7956 -82.7808 41° Northeast 243 280 4,700 -1,380 Descending Indianapolis Center
05:35PM 39.8458 -82.7186 44° Northeast 241 277 3,600 -1,020 Descending Indianapolis Center
05:36PM 39.8911 -82.7242 355° North 212 244 2,500 -600 Descending Indianapolis Center
05:36PM 39.9106 -82.7828 293° West 172 198 2,500 -60 Level Indianapolis Center
05:38PM 39.8853 -82.8322 236° Southwest 161 185 2,400 -360 Descending Indianapolis Center
05:38PM 39.8636 -82.8592 224° Southwest 118 136 1,900 -600 Descending Indianapolis Center
05:39PM 39.8594 -82.8633 218° Southwest 141 162 1,800 -600 Descending Indianapolis Center
05:39PM 39.8406 -82.8917 229° Southwest 156 180 1,300 -720 Descending Indianapolis Center
05:40PM 39.8347 -82.8981 220° Southwest 132 152 1,100 -780 Descending Indianapolis Center